Decoded Metar for KRCM ( in _UNIDENTIFIED) (IATA:N/A) | Meteo·Mobile Aviation Weather
aviador You're here:

KRCM Decoded Metar

in _UNIDENTIFIED
Report Time2019-07-19 18:55:00
UTC Time2019-07-19 19:04:25
Flight Rules vfr VFR
Wind170° at 12 Gusting to 16 kt
W.Decomp.*RWY 18: 11.5 kt HW 3.5 kt LCW
RWY 13: 10.1 kt HW 6.5 kt RCW
Visibility9999 m
Phenomena:N/A
Clouds:N/A
Expected CloudBase > 3,600 ft AGL from Temp-Dew spread
CeilingNone
Temp32°C (ISA +19)
Dew Point23°C (59% RH)
Heat Index36.8°C
QNH1012 hPa
Density Alt3,327 ft
Elevation801 ft
Report Wrong Elevation
Raw Report
KRCM 191855Z AUTO 17012G16KT 10SM CLR 32/23 A2988 RMK AO2=

Extra information for KRCM:More info

Metar Taf Metar & Taf Last 4 Metars F.Rules Stats Wind Profile Meteogram Temp Stats Metar ALERT Operation Metar Decoded Social comments